Church Fenton, United Kingdom
Current Conditions -  °F | °C
As of 1:50 AM on Tuesday 23 Dec 2014 (Local Time) from EGXU Reporting Station
Broken Clouds Broken Clouds  
Wind Chill: 52°   Ceiling: 2000
Heat Index: 52°   Visibility: 5mi
Dew Point: 50°   Wind: 22mph
Humidity: 94%   Direction: 240°WSW
Pressure: 29.77"   Gusts: 33mph
Location:  53.83°N, 1.2°W
Report Text: EGXU 230150Z AUTO 24019G29KT 8000 // BKN020/// 11/10 Q1008
Loading
Personal Weather Stations






























Interactive Weather Map New forecast layout! Learn more

10-Day Weather Forecast

Advertisements
Track Severe Weather on mobile